sensor_id;sensor_type;location;lat;lon;timestamp;P1;durP1;ratioP1;P2;durP2;ratioP2
11807;SDS011;5961;42.640;23.380;2023-06-22T00:00:46;12.18;;;8.90;;
11807;SDS011;5961;42.640;23.380;2023-06-22T00:03:13;10.80;;;9.32;;
11807;SDS011;5961;42.640;23.380;2023-06-22T00:05:40;9.27;;;8.38;;
11807;SDS011;5961;42.640;23.380;2023-06-22T00:08:07;9.83;;;8.77;;
11807;SDS011;5961;42.640;23.380;2023-06-22T00:10:33;9.73;;;8.73;;
11807;SDS011;5961;42.640;23.380;2023-06-22T00:13:01;10.53;;;8.73;;
11807;SDS011;5961;42.640;23.380;2023-06-22T00:15:28;9.18;;;8.10;;
11807;SDS011;5961;42.640;23.380;2023-06-22T00:17:55;8.20;;;7.33;;
11807;SDS011;5961;42.640;23.380;2023-06-22T00:20:22;8.80;;;7.80;;
11807;SDS011;5961;42.640;23.380;2023-06-22T00:22:52;9.67;;;6.80;;
11807;SDS011;5961;42.640;23.380;2023-06-22T00:25:19;8.38;;;7.57;;
11807;SDS011;5961;42.640;23.380;2023-06-22T00:27:46;8.93;;;8.00;;
11807;SDS011;5961;42.640;23.380;2023-06-22T00:30:14;9.90;;;8.60;;
11807;SDS011;5961;42.640;23.380;2023-06-22T00:32:41;10.23;;;8.20;;
11807;SDS011;5961;42.640;23.380;2023-06-22T00:35:09;15.57;;;8.10;;
11807;SDS011;5961;42.640;23.380;2023-06-22T00:37:36;9.55;;;8.60;;
11807;SDS011;5961;42.640;23.380;2023-06-22T00:40:03;9.83;;;7.70;;
11807;SDS011;5961;42.640;23.380;2023-06-22T00:42:31;9.03;;;7.53;;
11807;SDS011;5961;42.640;23.380;2023-06-22T00:44:57;8.80;;;7.40;;
11807;SDS011;5961;42.640;23.380;2023-06-22T00:47:25;7.77;;;6.93;;
11807;SDS011;5961;42.640;23.380;2023-06-22T00:49:53;7.97;;;7.17;;
11807;SDS011;5961;42.640;23.380;2023-06-22T00:52:20;9.77;;;7.60;;
11807;SDS011;5961;42.640;23.380;2023-06-22T00:54:54;8.10;;;7.40;;
11807;SDS011;5961;42.640;23.380;2023-06-22T00:57:22;9.20;;;7.97;;
11807;SDS011;5961;42.640;23.380;2023-06-22T00:59:53;10.17;;;8.27;;
11807;SDS011;5961;42.640;23.380;2023-06-22T01:02:20;9.50;;;8.20;;
11807;SDS011;5961;42.640;23.380;2023-06-22T01:04:48;8.77;;;7.97;;
11807;SDS011;5961;42.640;23.380;2023-06-22T01:07:16;8.67;;;7.77;;
11807;SDS011;5961;42.640;23.380;2023-06-22T01:09:57;9.80;;;8.17;;
11807;SDS011;5961;42.640;23.380;2023-06-22T01:12:29;10.27;;;7.90;;
11807;SDS011;5961;42.640;23.380;2023-06-22T01:15:02;9.33;;;8.37;;
11807;SDS011;5961;42.640;23.380;2023-06-22T01:17:34;8.97;;;8.07;;
11807;SDS011;5961;42.640;23.380;2023-06-22T01:20:05;10.03;;;8.00;;
11807;SDS011;5961;42.640;23.380;2023-06-22T01:22:38;9.57;;;8.30;;
11807;SDS011;5961;42.640;23.380;2023-06-22T01:25:13;10.20;;;8.60;;
11807;SDS011;5961;42.640;23.380;2023-06-22T01:27:47;8.93;;;8.13;;
11807;SDS011;5961;42.640;23.380;2023-06-22T01:30:27;10.63;;;8.40;;
11807;SDS011;5961;42.640;23.380;2023-06-22T01:32:56;9.67;;;8.63;;
11807;SDS011;5961;42.640;23.380;2023-06-22T01:35:24;9.50;;;8.43;;
11807;SDS011;5961;42.640;23.380;2023-06-22T01:37:52;11.20;;;8.33;;
11807;SDS011;5961;42.640;23.380;2023-06-22T01:40:19;9.40;;;8.50;;
11807;SDS011;5961;42.640;23.380;2023-06-22T01:42:47;9.73;;;8.73;;
11807;SDS011;5961;42.640;23.380;2023-06-22T01:45:14;10.23;;;8.70;;
11807;SDS011;5961;42.640;23.380;2023-06-22T01:47:43;9.67;;;8.70;;
11807;SDS011;5961;42.640;23.380;2023-06-22T01:50:11;12.47;;;8.53;;
11807;SDS011;5961;42.640;23.380;2023-06-22T01:52:38;9.93;;;8.90;;
11807;SDS011;5961;42.640;23.380;2023-06-22T01:55:05;9.80;;;8.90;;
11807;SDS011;5961;42.640;23.380;2023-06-22T01:57:33;10.30;;;9.20;;
11807;SDS011;5961;42.640;23.380;2023-06-22T02:00:00;10.67;;;9.47;;
11807;SDS011;5961;42.640;23.380;2023-06-22T02:02:30;9.93;;;8.93;;
11807;SDS011;5961;42.640;23.380;2023-06-22T02:05:05;12.23;;;9.20;;
11807;SDS011;5961;42.640;23.380;2023-06-22T02:07:36;10.57;;;9.10;;
11807;SDS011;5961;42.640;23.380;2023-06-22T02:10:08;10.57;;;9.30;;
11807;SDS011;5961;42.640;23.380;2023-06-22T02:12:37;9.43;;;8.43;;
11807;SDS011;5961;42.640;23.380;2023-06-22T02:15:05;9.77;;;8.20;;
11807;SDS011;5961;42.640;23.380;2023-06-22T02:17:33;10.57;;;9.00;;
11807;SDS011;5961;42.640;23.380;2023-06-22T02:20:01;9.90;;;8.50;;
11807;SDS011;5961;42.640;23.380;2023-06-22T02:22:33;13.10;;;10.53;;
11807;SDS011;5961;42.640;23.380;2023-06-22T02:25:00;11.23;;;10.03;;
11807;SDS011;5961;42.640;23.380;2023-06-22T02:27:27;11.70;;;9.13;;
11807;SDS011;5961;42.640;23.380;2023-06-22T02:29:53;14.57;;;12.57;;
11807;SDS011;5961;42.640;23.380;2023-06-22T02:32:20;11.80;;;10.57;;
11807;SDS011;5961;42.640;23.380;2023-06-22T02:34:47;10.20;;;8.70;;
11807;SDS011;5961;42.640;23.380;2023-06-22T02:37:15;9.80;;;8.67;;
11807;SDS011;5961;42.640;23.380;2023-06-22T02:39:42;11.07;;;9.37;;
11807;SDS011;5961;42.640;23.380;2023-06-22T02:42:09;10.30;;;9.17;;
11807;SDS011;5961;42.640;23.380;2023-06-22T02:44:36;9.53;;;8.63;;
11807;SDS011;5961;42.640;23.380;2023-06-22T02:47:03;10.53;;;8.93;;
11807;SDS011;5961;42.640;23.380;2023-06-22T02:49:30;10.73;;;8.80;;
11807;SDS011;5961;42.640;23.380;2023-06-22T02:51:57;9.90;;;8.90;;
11807;SDS011;5961;42.640;23.380;2023-06-22T02:54:25;9.87;;;8.87;;
11807;SDS011;5961;42.640;23.380;2023-06-22T02:56:52;10.03;;;8.60;;
11807;SDS011;5961;42.640;23.380;2023-06-22T02:59:19;9.63;;;8.20;;
11807;SDS011;5961;42.640;23.380;2023-06-22T03:01:48;10.43;;;8.50;;
11807;SDS011;5961;42.640;23.380;2023-06-22T03:04:15;9.30;;;8.40;;
11807;SDS011;5961;42.640;23.380;2023-06-22T03:06:42;10.70;;;8.87;;
11807;SDS011;5961;42.640;23.380;2023-06-22T03:09:08;9.80;;;8.23;;
11807;SDS011;5961;42.640;23.380;2023-06-22T03:11:37;10.80;;;8.90;;
11807;SDS011;5961;42.640;23.380;2023-06-22T03:14:03;9.50;;;8.60;;
11807;SDS011;5961;42.640;23.380;2023-06-22T03:16:30;12.97;;;9.03;;
11807;SDS011;5961;42.640;23.380;2023-06-22T03:18:58;9.57;;;8.27;;
11807;SDS011;5961;42.640;23.380;2023-06-22T03:21:28;10.57;;;9.43;;
11807;SDS011;5961;42.640;23.380;2023-06-22T03:23:55;10.30;;;8.70;;
11807;SDS011;5961;42.640;23.380;2023-06-22T03:26:22;11.27;;;8.87;;
11807;SDS011;5961;42.640;23.380;2023-06-22T03:28:53;9.47;;;8.40;;
11807;SDS011;5961;42.640;23.380;2023-06-22T03:31:19;9.50;;;8.60;;
11807;SDS011;5961;42.640;23.380;2023-06-22T03:33:47;10.23;;;8.77;;
11807;SDS011;5961;42.640;23.380;2023-06-22T03:36:14;10.70;;;9.07;;
11807;SDS011;5961;42.640;23.380;2023-06-22T03:38:43;10.77;;;9.30;;
11807;SDS011;5961;42.640;23.380;2023-06-22T03:41:10;11.03;;;9.00;;
11807;SDS011;5961;42.640;23.380;2023-06-22T03:43:37;11.53;;;9.30;;
11807;SDS011;5961;42.640;23.380;2023-06-22T03:46:05;10.50;;;9.23;;
11807;SDS011;5961;42.640;23.380;2023-06-22T03:48:32;11.97;;;9.27;;
11807;SDS011;5961;42.640;23.380;2023-06-22T03:50:59;11.90;;;9.83;;
11807;SDS011;5961;42.640;23.380;2023-06-22T03:53:26;12.27;;;10.20;;
11807;SDS011;5961;42.640;23.380;2023-06-22T03:55:52;17.63;;;12.50;;
11807;SDS011;5961;42.640;23.380;2023-06-22T03:58:20;27.70;;;21.33;;
11807;SDS011;5961;42.640;23.380;2023-06-22T04:00:47;18.57;;;14.17;;
11807;SDS011;5961;42.640;23.380;2023-06-22T04:03:15;19.97;;;15.27;;
11807;SDS011;5961;42.640;23.380;2023-06-22T04:05:43;21.63;;;15.90;;
11807;SDS011;5961;42.640;23.380;2023-06-22T04:08:11;18.10;;;13.33;;
11807;SDS011;5961;42.640;23.380;2023-06-22T04:10:38;18.53;;;13.50;;
11807;SDS011;5961;42.640;23.380;2023-06-22T04:13:05;21.37;;;15.90;;
11807;SDS011;5961;42.640;23.380;2023-06-22T04:15:32;16.20;;;13.77;;
11807;SDS011;5961;42.640;23.380;2023-06-22T04:17:58;12.83;;;11.10;;
11807;SDS011;5961;42.640;23.380;2023-06-22T04:20:26;16.17;;;13.17;;
11807;SDS011;5961;42.640;23.380;2023-06-22T04:22:53;18.63;;;13.37;;
11807;SDS011;5961;42.640;23.380;2023-06-22T04:25:20;18.27;;;12.87;;
11807;SDS011;5961;42.640;23.380;2023-06-22T04:27:48;15.23;;;13.23;;
11807;SDS011;5961;42.640;23.380;2023-06-22T04:30:15;15.27;;;12.13;;
11807;SDS011;5961;42.640;23.380;2023-06-22T04:32:42;16.30;;;13.03;;
11807;SDS011;5961;42.640;23.380;2023-06-22T04:35:09;23.93;;;17.50;;
11807;SDS011;5961;42.640;23.380;2023-06-22T04:37:37;18.70;;;12.47;;
11807;SDS011;5961;42.640;23.380;2023-06-22T04:40:05;17.97;;;13.50;;
11807;SDS011;5961;42.640;23.380;2023-06-22T04:42:34;16.80;;;14.10;;
11807;SDS011;5961;42.640;23.380;2023-06-22T04:45:01;13.40;;;12.00;;
11807;SDS011;5961;42.640;23.380;2023-06-22T04:47:29;14.52;;;12.80;;
11807;SDS011;5961;42.640;23.380;2023-06-22T04:49:55;14.07;;;11.20;;
11807;SDS011;5961;42.640;23.380;2023-06-22T04:52:22;15.90;;;10.85;;
11807;SDS011;5961;42.640;23.380;2023-06-22T04:54:51;15.43;;;12.27;;
11807;SDS011;5961;42.640;23.380;2023-06-22T04:57:21;15.27;;;12.00;;
11807;SDS011;5961;42.640;23.380;2023-06-22T04:59:57;17.00;;;12.10;;
11807;SDS011;5961;42.640;23.380;2023-06-22T05:02:41;14.13;;;12.30;;
11807;SDS011;5961;42.640;23.380;2023-06-22T05:05:08;12.53;;;11.13;;
11807;SDS011;5961;42.640;23.380;2023-06-22T05:07:38;17.48;;;11.30;;
11807;SDS011;5961;42.640;23.380;2023-06-22T05:10:09;19.73;;;11.83;;
11807;SDS011;5961;42.640;23.380;2023-06-22T05:12:37;16.70;;;11.80;;
11807;SDS011;5961;42.640;23.380;2023-06-22T05:15:04;18.02;;;12.15;;
11807;SDS011;5961;42.640;23.380;2023-06-22T05:17:32;19.37;;;13.10;;
11807;SDS011;5961;42.640;23.380;2023-06-22T05:19:59;15.10;;;12.45;;
11807;SDS011;5961;42.640;23.380;2023-06-22T05:22:26;16.70;;;12.95;;
11807;SDS011;5961;42.640;23.380;2023-06-22T05:24:52;18.25;;;12.63;;
11807;SDS011;5961;42.640;23.380;2023-06-22T05:27:20;13.40;;;11.60;;
11807;SDS011;5961;42.640;23.380;2023-06-22T05:29:47;15.37;;;12.33;;
11807;SDS011;5961;42.640;23.380;2023-06-22T05:32:14;16.70;;;11.52;;
11807;SDS011;5961;42.640;23.380;2023-06-22T05:34:40;16.13;;;12.07;;
11807;SDS011;5961;42.640;23.380;2023-06-22T05:37:07;20.77;;;13.98;;
11807;SDS011;5961;42.640;23.380;2023-06-22T05:39:34;15.05;;;13.02;;
11807;SDS011;5961;42.640;23.380;2023-06-22T05:42:03;17.67;;;12.75;;
11807;SDS011;5961;42.640;23.380;2023-06-22T05:44:32;17.00;;;12.65;;
11807;SDS011;5961;42.640;23.380;2023-06-22T05:46:59;14.55;;;11.63;;
11807;SDS011;5961;42.640;23.380;2023-06-22T05:49:26;15.63;;;11.60;;
11807;SDS011;5961;42.640;23.380;2023-06-22T05:51:54;16.88;;;11.35;;
11807;SDS011;5961;42.640;23.380;2023-06-22T05:54:21;15.60;;;11.65;;
11807;SDS011;5961;42.640;23.380;2023-06-22T05:56:48;18.67;;;12.07;;
11807;SDS011;5961;42.640;23.380;2023-06-22T05:59:15;14.20;;;12.02;;
11807;SDS011;5961;42.640;23.380;2023-06-22T06:01:43;16.25;;;10.93;;
11807;SDS011;5961;42.640;23.380;2023-06-22T06:04:10;12.63;;;11.32;;
11807;SDS011;5961;42.640;23.380;2023-06-22T06:06:36;14.77;;;11.70;;
11807;SDS011;5961;42.640;23.380;2023-06-22T06:09:03;17.15;;;11.82;;
11807;SDS011;5961;42.640;23.380;2023-06-22T06:11:30;16.08;;;12.75;;
11807;SDS011;5961;42.640;23.380;2023-06-22T06:13:57;16.40;;;12.77;;
11807;SDS011;5961;42.640;23.380;2023-06-22T06:16:23;18.20;;;12.95;;
11807;SDS011;5961;42.640;23.380;2023-06-22T06:18:51;15.50;;;11.93;;
11807;SDS011;5961;42.640;23.380;2023-06-22T06:21:19;15.48;;;11.60;;
11807;SDS011;5961;42.640;23.380;2023-06-22T06:23:46;16.25;;;12.45;;
11807;SDS011;5961;42.640;23.380;2023-06-22T06:26:13;14.43;;;12.25;;
11807;SDS011;5961;42.640;23.380;2023-06-22T06:28:41;16.00;;;12.52;;
11807;SDS011;5961;42.640;23.380;2023-06-22T06:31:08;15.13;;;12.88;;
11807;SDS011;5961;42.640;23.380;2023-06-22T06:33:35;16.83;;;13.45;;
11807;SDS011;5961;42.640;23.380;2023-06-22T06:36:03;15.45;;;12.38;;
11807;SDS011;5961;42.640;23.380;2023-06-22T06:38:30;18.60;;;12.35;;
11807;SDS011;5961;42.640;23.380;2023-06-22T06:40:57;16.27;;;13.85;;
11807;SDS011;5961;42.640;23.380;2023-06-22T06:43:24;21.08;;;12.93;;
11807;SDS011;5961;42.640;23.380;2023-06-22T06:45:51;18.40;;;13.30;;
11807;SDS011;5961;42.640;23.380;2023-06-22T06:48:17;16.42;;;12.55;;
11807;SDS011;5961;42.640;23.380;2023-06-22T06:50:44;18.20;;;12.32;;
11807;SDS011;5961;42.640;23.380;2023-06-22T06:53:12;17.27;;;12.90;;
11807;SDS011;5961;42.640;23.380;2023-06-22T06:55:39;17.95;;;13.02;;
11807;SDS011;5961;42.640;23.380;2023-06-22T06:58:05;15.77;;;12.85;;
11807;SDS011;5961;42.640;23.380;2023-06-22T07:00:34;16.55;;;12.43;;
11807;SDS011;5961;42.640;23.380;2023-06-22T07:03:02;17.45;;;12.20;;
11807;SDS011;5961;42.640;23.380;2023-06-22T07:05:28;19.00;;;12.93;;
11807;SDS011;5961;42.640;23.380;2023-06-22T07:07:55;18.98;;;12.63;;
11807;SDS011;5961;42.640;23.380;2023-06-22T07:10:23;17.55;;;12.30;;
11807;SDS011;5961;42.640;23.380;2023-06-22T07:12:50;14.15;;;12.18;;
11807;SDS011;5961;42.640;23.380;2023-06-22T07:15:17;18.02;;;11.02;;
11807;SDS011;5961;42.640;23.380;2023-06-22T07:17:43;13.63;;;12.23;;
11807;SDS011;5961;42.640;23.380;2023-06-22T07:20:10;17.92;;;11.65;;
11807;SDS011;5961;42.640;23.380;2023-06-22T07:22:38;13.95;;;11.90;;
11807;SDS011;5961;42.640;23.380;2023-06-22T07:25:05;16.30;;;12.05;;
11807;SDS011;5961;42.640;23.380;2023-06-22T07:27:37;17.08;;;11.95;;
11807;SDS011;5961;42.640;23.380;2023-06-22T07:30:05;18.65;;;12.52;;
11807;SDS011;5961;42.640;23.380;2023-06-22T07:32:32;14.68;;;11.60;;
11807;SDS011;5961;42.640;23.380;2023-06-22T07:34:59;18.42;;;12.82;;
11807;SDS011;5961;42.640;23.380;2023-06-22T07:37:26;16.10;;;12.32;;
11807;SDS011;5961;42.640;23.380;2023-06-22T07:39:54;14.82;;;12.20;;
11807;SDS011;5961;42.640;23.380;2023-06-22T07:42:23;21.77;;;12.55;;
11807;SDS011;5961;42.640;23.380;2023-06-22T07:44:51;17.70;;;12.75;;
11807;SDS011;5961;42.640;23.380;2023-06-22T07:47:19;18.67;;;12.30;;
11807;SDS011;5961;42.640;23.380;2023-06-22T07:49:50;20.80;;;12.30;;
11807;SDS011;5961;42.640;23.380;2023-06-22T07:52:16;19.27;;;12.93;;
11807;SDS011;5961;42.640;23.380;2023-06-22T07:54:43;17.92;;;13.88;;
11807;SDS011;5961;42.640;23.380;2023-06-22T07:57:12;16.08;;;13.07;;
11807;SDS011;5961;42.640;23.380;2023-06-22T07:59:39;17.05;;;13.43;;
11807;SDS011;5961;42.640;23.380;2023-06-22T08:02:07;14.82;;;11.98;;
11807;SDS011;5961;42.640;23.380;2023-06-22T08:04:34;16.65;;;12.07;;
11807;SDS011;5961;42.640;23.380;2023-06-22T08:07:01;16.08;;;11.63;;
11807;SDS011;5961;42.640;23.380;2023-06-22T08:09:29;15.88;;;11.65;;
11807;SDS011;5961;42.640;23.380;2023-06-22T08:11:57;13.82;;;11.18;;
11807;SDS011;5961;42.640;23.380;2023-06-22T08:14:24;16.45;;;11.88;;
11807;SDS011;5961;42.640;23.380;2023-06-22T08:16:51;15.13;;;12.20;;
11807;SDS011;5961;42.640;23.380;2023-06-22T08:19:19;14.07;;;11.43;;
11807;SDS011;5961;42.640;23.380;2023-06-22T08:21:46;14.55;;;11.32;;
11807;SDS011;5961;42.640;23.380;2023-06-22T08:24:13;15.98;;;12.40;;
11807;SDS011;5961;42.640;23.380;2023-06-22T08:26:39;16.20;;;11.95;;
11807;SDS011;5961;42.640;23.380;2023-06-22T08:29:06;14.13;;;12.48;;
11807;SDS011;5961;42.640;23.380;2023-06-22T08:31:33;17.58;;;12.73;;
11807;SDS011;5961;42.640;23.380;2023-06-22T08:34:00;16.23;;;12.70;;
11807;SDS011;5961;42.640;23.380;2023-06-22T08:36:28;16.63;;;12.93;;
11807;SDS011;5961;42.640;23.380;2023-06-22T08:38:55;19.25;;;12.38;;
11807;SDS011;5961;42.640;23.380;2023-06-22T08:41:22;14.32;;;12.00;;
11807;SDS011;5961;42.640;23.380;2023-06-22T08:43:50;13.50;;;11.65;;
11807;SDS011;5961;42.640;23.380;2023-06-22T08:46:17;14.25;;;11.63;;
11807;SDS011;5961;42.640;23.380;2023-06-22T08:48:47;15.65;;;11.93;;
11807;SDS011;5961;42.640;23.380;2023-06-22T08:51:14;13.35;;;11.82;;
11807;SDS011;5961;42.640;23.380;2023-06-22T08:53:42;17.08;;;12.20;;
11807;SDS011;5961;42.640;23.380;2023-06-22T08:56:10;16.13;;;11.88;;
11807;SDS011;5961;42.640;23.380;2023-06-22T08:58:36;17.23;;;12.35;;
11807;SDS011;5961;42.640;23.380;2023-06-22T09:01:03;14.68;;;12.52;;
11807;SDS011;5961;42.640;23.380;2023-06-22T09:03:30;16.10;;;12.15;;
11807;SDS011;5961;42.640;23.380;2023-06-22T09:05:57;15.75;;;11.95;;
11807;SDS011;5961;42.640;23.380;2023-06-22T09:08:24;17.58;;;11.80;;
11807;SDS011;5961;42.640;23.380;2023-06-22T09:10:52;14.02;;;11.45;;
11807;SDS011;5961;42.640;23.380;2023-06-22T09:13:19;13.13;;;10.82;;
11807;SDS011;5961;42.640;23.380;2023-06-22T09:15:47;16.10;;;11.95;;
11807;SDS011;5961;42.640;23.380;2023-06-22T09:18:14;16.17;;;12.15;;
11807;SDS011;5961;42.640;23.380;2023-06-22T09:20:40;13.60;;;11.50;;
11807;SDS011;5961;42.640;23.380;2023-06-22T09:23:07;12.35;;;11.05;;
11807;SDS011;5961;42.640;23.380;2023-06-22T09:25:34;13.10;;;10.82;;
11807;SDS011;5961;42.640;23.380;2023-06-22T09:28:02;12.13;;;10.82;;
11807;SDS011;5961;42.640;23.380;2023-06-22T09:30:29;11.90;;;10.30;;
11807;SDS011;5961;42.640;23.380;2023-06-22T09:32:56;13.45;;;10.93;;
11807;SDS011;5961;42.640;23.380;2023-06-22T09:35:22;12.85;;;10.27;;
11807;SDS011;5961;42.640;23.380;2023-06-22T09:37:49;14.35;;;9.90;;
11807;SDS011;5961;42.640;23.380;2023-06-22T09:40:16;11.70;;;10.05;;
11807;SDS011;5961;42.640;23.380;2023-06-22T09:42:42;12.18;;;9.70;;
11807;SDS011;5961;42.640;23.380;2023-06-22T09:45:11;10.45;;;9.35;;
11807;SDS011;5961;42.640;23.380;2023-06-22T09:47:37;11.48;;;10.27;;
11807;SDS011;5961;42.640;23.380;2023-06-22T09:50:04;15.80;;;10.05;;
11807;SDS011;5961;42.640;23.380;2023-06-22T09:52:32;10.35;;;9.23;;
11807;SDS011;5961;42.640;23.380;2023-06-22T09:54:58;10.77;;;9.15;;
11807;SDS011;5961;42.640;23.380;2023-06-22T09:57:25;11.05;;;9.48;;
11807;SDS011;5961;42.640;23.380;2023-06-22T09:59:53;14.98;;;9.85;;
11807;SDS011;5961;42.640;23.380;2023-06-22T10:02:21;11.48;;;10.35;;
11807;SDS011;5961;42.640;23.380;2023-06-22T10:04:48;11.73;;;10.52;;
11807;SDS011;5961;42.640;23.380;2023-06-22T10:07:15;12.18;;;10.20;;
11807;SDS011;5961;42.640;23.380;2023-06-22T10:09:41;11.23;;;10.02;;
11807;SDS011;5961;42.640;23.380;2023-06-22T10:12:08;12.63;;;9.75;;
11807;SDS011;5961;42.640;23.380;2023-06-22T10:14:35;12.18;;;9.80;;
11807;SDS011;5961;42.640;23.380;2023-06-22T10:17:02;12.05;;;10.07;;
11807;SDS011;5961;42.640;23.380;2023-06-22T10:19:30;10.98;;;9.88;;
11807;SDS011;5961;42.640;23.380;2023-06-22T10:21:57;11.25;;;9.60;;
11807;SDS011;5961;42.640;23.380;2023-06-22T10:24:23;12.77;;;10.45;;
11807;SDS011;5961;42.640;23.380;2023-06-22T10:26:50;10.18;;;9.00;;
11807;SDS011;5961;42.640;23.380;2023-06-22T10:29:17;10.43;;;9.43;;
11807;SDS011;5961;42.640;23.380;2023-06-22T10:31:43;10.63;;;9.27;;
11807;SDS011;5961;42.640;23.380;2023-06-22T10:34:10;11.77;;;9.73;;
11807;SDS011;5961;42.640;23.380;2023-06-22T10:36:38;9.60;;;8.68;;
11807;SDS011;5961;42.640;23.380;2023-06-22T10:39:05;10.20;;;9.15;;
11807;SDS011;5961;42.640;23.380;2023-06-22T10:41:31;10.38;;;9.05;;
11807;SDS011;5961;42.640;23.380;2023-06-22T10:43:58;11.60;;;9.60;;
11807;SDS011;5961;42.640;23.380;2023-06-22T10:46:25;12.10;;;9.52;;
11807;SDS011;5961;42.640;23.380;2023-06-22T10:48:52;9.68;;;8.77;;
11807;SDS011;5961;42.640;23.380;2023-06-22T10:51:22;10.35;;;9.27;;
11807;SDS011;5961;42.640;23.380;2023-06-22T10:53:50;10.13;;;9.05;;
11807;SDS011;5961;42.640;23.380;2023-06-22T10:56:17;9.73;;;8.73;;
11807;SDS011;5961;42.640;23.380;2023-06-22T10:58:44;11.75;;;10.65;;
11807;SDS011;5961;42.640;23.380;2023-06-22T11:01:11;12.48;;;10.02;;
11807;SDS011;5961;42.640;23.380;2023-06-22T11:03:38;10.73;;;9.52;;
11807;SDS011;5961;42.640;23.380;2023-06-22T11:06:04;11.45;;;10.25;;
11807;SDS011;5961;42.640;23.380;2023-06-22T11:08:31;12.75;;;10.60;;
11807;SDS011;5961;42.640;23.380;2023-06-22T11:10:59;11.88;;;10.63;;
11807;SDS011;5961;42.640;23.380;2023-06-22T11:13:26;10.25;;;9.18;;
11807;SDS011;5961;42.640;23.380;2023-06-22T11:15:52;10.90;;;9.68;;
11807;SDS011;5961;42.640;23.380;2023-06-22T11:18:19;10.52;;;9.48;;
11807;SDS011;5961;42.640;23.380;2023-06-22T11:20:48;11.05;;;9.95;;
11807;SDS011;5961;42.640;23.380;2023-06-22T11:23:14;11.65;;;9.88;;
11807;SDS011;5961;42.640;23.380;2023-06-22T11:25:41;11.45;;;9.00;;
11807;SDS011;5961;42.640;23.380;2023-06-22T11:28:09;10.68;;;7.93;;
11807;SDS011;5961;42.640;23.380;2023-06-22T11:30:36;9.05;;;8.05;;
11807;SDS011;5961;42.640;23.380;2023-06-22T11:33:03;9.20;;;8.32;;
11807;SDS011;5961;42.640;23.380;2023-06-22T11:35:29;9.70;;;8.70;;
11807;SDS011;5961;42.640;23.380;2023-06-22T11:37:56;9.13;;;8.23;;
11807;SDS011;5961;42.640;23.380;2023-06-22T11:40:23;8.57;;;7.78;;
11807;SDS011;5961;42.640;23.380;2023-06-22T11:42:50;10.00;;;7.93;;
11807;SDS011;5961;42.640;23.380;2023-06-22T11:45:18;9.00;;;8.18;;
11807;SDS011;5961;42.640;23.380;2023-06-22T11:47:45;8.82;;;7.95;;
11807;SDS011;5961;42.640;23.380;2023-06-22T11:50:12;9.15;;;8.27;;
11807;SDS011;5961;42.640;23.380;2023-06-22T11:52:39;10.02;;;8.10;;
11807;SDS011;5961;42.640;23.380;2023-06-22T11:55:06;8.77;;;7.93;;
11807;SDS011;5961;42.640;23.380;2023-06-22T11:57:33;8.88;;;7.55;;
11807;SDS011;5961;42.640;23.380;2023-06-22T12:00:00;9.35;;;7.75;;
11807;SDS011;5961;42.640;23.380;2023-06-22T12:02:32;8.55;;;7.68;;
11807;SDS011;5961;42.640;23.380;2023-06-22T12:04:59;8.80;;;7.63;;
11807;SDS011;5961;42.640;23.380;2023-06-22T12:07:27;9.07;;;8.27;;
11807;SDS011;5961;42.640;23.380;2023-06-22T12:09:53;9.18;;;8.05;;
11807;SDS011;5961;42.640;23.380;2023-06-22T12:12:20;8.68;;;7.88;;
11807;SDS011;5961;42.640;23.380;2023-06-22T12:14:47;9.02;;;8.18;;
11807;SDS011;5961;42.640;23.380;2023-06-22T12:17:13;8.98;;;8.10;;
11807;SDS011;5961;42.640;23.380;2023-06-22T12:19:41;9.48;;;8.60;;
11807;SDS011;5961;42.640;23.380;2023-06-22T12:22:08;22.17;;;9.32;;
11807;SDS011;5961;42.640;23.380;2023-06-22T12:24:35;11.13;;;8.77;;
11807;SDS011;5961;42.640;23.380;2023-06-22T12:27:01;10.32;;;9.10;;
11807;SDS011;5961;42.640;23.380;2023-06-22T12:29:28;12.55;;;9.80;;
11807;SDS011;5961;42.640;23.380;2023-06-22T12:31:55;14.20;;;9.90;;
11807;SDS011;5961;42.640;23.380;2023-06-22T12:34:22;13.38;;;9.95;;
11807;SDS011;5961;42.640;23.380;2023-06-22T12:36:50;13.25;;;9.82;;
11807;SDS011;5961;42.640;23.380;2023-06-22T12:39:19;13.88;;;10.05;;
11807;SDS011;5961;42.640;23.380;2023-06-22T12:41:45;15.88;;;9.68;;
11807;SDS011;5961;42.640;23.380;2023-06-22T12:44:12;15.30;;;9.43;;
11807;SDS011;5961;42.640;23.380;2023-06-22T12:46:39;15.48;;;9.48;;
11807;SDS011;5961;42.640;23.380;2023-06-22T12:49:05;17.98;;;10.50;;
11807;SDS011;5961;42.640;23.380;2023-06-22T12:51:32;19.00;;;11.15;;
11807;SDS011;5961;42.640;23.380;2023-06-22T12:54:00;13.57;;;9.80;;
11807;SDS011;5961;42.640;23.380;2023-06-22T12:56:27;13.55;;;9.30;;
11807;SDS011;5961;42.640;23.380;2023-06-22T12:58:54;12.85;;;9.80;;
11807;SDS011;5961;42.640;23.380;2023-06-22T13:01:20;15.88;;;10.32;;
11807;SDS011;5961;42.640;23.380;2023-06-22T13:03:47;13.25;;;9.52;;
11807;SDS011;5961;42.640;23.380;2023-06-22T13:06:14;11.73;;;9.45;;
11807;SDS011;5961;42.640;23.380;2023-06-22T13:08:40;13.88;;;9.50;;
11807;SDS011;5961;42.640;23.380;2023-06-22T13:11:08;10.90;;;9.02;;
11807;SDS011;5961;42.640;23.380;2023-06-22T13:13:35;11.00;;;9.02;;
11807;SDS011;5961;42.640;23.380;2023-06-22T13:16:02;12.98;;;11.52;;
11807;SDS011;5961;42.640;23.380;2023-06-22T13:18:28;12.57;;;11.07;;
11807;SDS011;5961;42.640;23.380;2023-06-22T13:20:55;14.38;;;10.85;;
11807;SDS011;5961;42.640;23.380;2023-06-22T13:23:23;12.18;;;10.52;;
11807;SDS011;5961;42.640;23.380;2023-06-22T13:25:49;11.73;;;9.68;;
11807;SDS011;5961;42.640;23.380;2023-06-22T13:28:17;11.05;;;9.70;;
11807;SDS011;5961;42.640;23.380;2023-06-22T13:30:45;12.77;;;9.75;;
11807;SDS011;5961;42.640;23.380;2023-06-22T13:33:12;11.48;;;10.27;;
11807;SDS011;5961;42.640;23.380;2023-06-22T13:35:40;11.15;;;9.93;;
11807;SDS011;5961;42.640;23.380;2023-06-22T13:38:07;12.00;;;8.93;;
11807;SDS011;5961;42.640;23.380;2023-06-22T13:40:34;11.48;;;9.00;;
11807;SDS011;5961;42.640;23.380;2023-06-22T13:43:01;11.27;;;8.98;;
11807;SDS011;5961;42.640;23.380;2023-06-22T13:45:29;10.45;;;9.25;;
11807;SDS011;5961;42.640;23.380;2023-06-22T13:47:55;12.43;;;9.40;;
11807;SDS011;5961;42.640;23.380;2023-06-22T13:50:22;10.43;;;9.32;;
11807;SDS011;5961;42.640;23.380;2023-06-22T13:52:49;11.57;;;10.32;;
11807;SDS011;5961;42.640;23.380;2023-06-22T13:55:16;13.85;;;10.65;;
11807;SDS011;5961;42.640;23.380;2023-06-22T13:57:44;13.35;;;10.68;;
11807;SDS011;5961;42.640;23.380;2023-06-22T14:00:11;11.82;;;10.15;;
11807;SDS011;5961;42.640;23.380;2023-06-22T14:02:40;11.10;;;9.50;;
11807;SDS011;5961;42.640;23.380;2023-06-22T14:05:07;10.40;;;9.35;;
11807;SDS011;5961;42.640;23.380;2023-06-22T14:07:34;11.10;;;9.55;;
11807;SDS011;5961;42.640;23.380;2023-06-22T14:10:01;11.70;;;9.73;;
11807;SDS011;5961;42.640;23.380;2023-06-22T14:12:27;15.73;;;10.75;;
11807;SDS011;5961;42.640;23.380;2023-06-22T14:14:54;12.63;;;10.30;;
11807;SDS011;5961;42.640;23.380;2023-06-22T14:17:22;14.05;;;9.55;;
11807;SDS011;5961;42.640;23.380;2023-06-22T14:19:52;13.20;;;10.02;;
11807;SDS011;5961;42.640;23.380;2023-06-22T14:22:19;16.05;;;10.27;;
11807;SDS011;5961;42.640;23.380;2023-06-22T14:24:46;11.15;;;9.75;;
11807;SDS011;5961;42.640;23.380;2023-06-22T14:27:13;14.32;;;10.48;;
11807;SDS011;5961;42.640;23.380;2023-06-22T14:29:40;11.25;;;10.00;;
11807;SDS011;5961;42.640;23.380;2023-06-22T14:32:07;11.63;;;10.02;;